createdAt,value
2022-11-16T00:00:05.400Z,59.14
2022-11-16T00:01:02.051Z,49.63
2022-11-16T00:02:00.091Z,62.04
2022-11-16T00:03:00.024Z,61.39
2022-11-16T00:04:00.021Z,66.39
2022-11-16T00:05:00.028Z,65.74
2022-11-16T00:06:00.001Z,61.23
2022-11-16T00:07:00.020Z,50.11
2022-11-16T00:07:59.981Z,61.71
2022-11-16T00:08:59.974Z,57.69
2022-11-16T00:09:59.981Z,52.69
2022-11-16T00:10:59.967Z,61.55
2022-11-16T00:11:59.957Z,71.70
2022-11-16T00:12:59.950Z,52.37
2022-11-16T00:13:59.936Z,57.52
2022-11-16T00:14:59.934Z,52.37
2022-11-16T00:15:59.931Z,59.14
2022-11-16T00:16:59.916Z,52.53
2022-11-16T00:17:59.910Z,71.06
2022-11-16T00:18:59.897Z,74.60
2022-11-16T00:19:59.894Z,66.39
2022-11-16T00:20:59.897Z,62.20
2022-11-16T00:21:59.877Z,67.84
2022-11-16T00:22:59.881Z,63.97
2022-11-16T00:23:59.874Z,50.92
2022-11-16T00:24:59.862Z,56.40
2022-11-16T00:25:59.845Z,56.88
2022-11-16T00:26:59.839Z,65.58
2022-11-16T00:30:00.451Z,62.68
2022-11-16T00:31:00.442Z,58.49
2022-11-16T00:32:00.430Z,70.25
2022-11-16T00:33:01.521Z,62.52
2022-11-16T00:34:01.525Z,65.90
2022-11-16T00:35:01.517Z,66.55
2022-11-16T00:36:02.318Z,66.39
2022-11-16T00:37:01.494Z,58.65
2022-11-16T00:38:01.477Z,67.35
2022-11-16T00:39:01.469Z,58.65
2022-11-16T00:40:01.481Z,66.55
2022-11-16T00:41:01.477Z,59.94
2022-11-16T00:42:01.461Z,64.94
2022-11-16T00:43:01.452Z,69.61
2022-11-16T00:44:01.446Z,60.10
2022-11-16T00:45:01.448Z,60.59
2022-11-16T00:46:01.417Z,64.45
2022-11-16T00:47:01.427Z,52.53
2022-11-16T00:48:01.403Z,59.46
2022-11-16T00:49:01.397Z,59.78
2022-11-16T00:50:01.388Z,64.61
2022-11-16T00:51:01.400Z,60.91
2022-11-16T00:52:01.378Z,63.16
2022-11-16T00:53:01.367Z,51.40
2022-11-16T00:54:01.357Z,68.48
2022-11-16T00:55:01.349Z,73.48
2022-11-16T00:56:01.350Z,64.45
2022-11-16T00:57:01.338Z,65.74
2022-11-16T00:58:01.329Z,67.68
2022-11-16T00:59:01.351Z,61.07
2022-11-16T01:00:01.312Z,52.21
2022-11-16T01:01:01.337Z,64.94
2022-11-16T01:02:01.312Z,62.20
2022-11-16T01:03:01.310Z,62.52
2022-11-16T01:04:01.287Z,75.73
2022-11-16T01:05:01.276Z,65.42
2022-11-16T01:06:01.271Z,59.30
2022-11-16T01:07:01.298Z,69.61
2022-11-16T01:08:01.245Z,53.98
2022-11-16T01:09:01.246Z,69.29
2022-11-16T01:10:01.228Z,69.13
2022-11-16T01:11:01.246Z,53.17
2022-11-16T01:12:01.240Z,62.68
2022-11-16T01:13:01.212Z,65.42
2022-11-16T01:14:01.205Z,75.41
2022-11-16T01:15:01.199Z,65.74
2022-11-16T01:16:01.190Z,69.61
2022-11-16T01:17:01.177Z,54.95
2022-11-16T01:18:01.176Z,58.97
2022-11-16T01:19:01.164Z,71.22
2022-11-16T01:20:01.862Z,64.94
2022-11-16T01:21:01.140Z,57.20
2022-11-16T01:22:02.136Z,62.52
2022-11-16T01:23:01.133Z,54.30
2022-11-16T01:24:01.126Z,61.39
2022-11-16T01:25:01.122Z,66.87
2022-11-16T01:26:01.111Z,59.14
2022-11-16T01:27:01.104Z,67.03
2022-11-16T01:28:01.091Z,67.35
2022-11-16T01:29:01.105Z,62.20
2022-11-16T01:30:01.083Z,62.20
2022-11-16T01:31:01.063Z,53.50
2022-11-16T01:32:01.062Z,56.24
2022-11-16T01:33:01.050Z,53.50
2022-11-16T01:34:01.042Z,62.04
2022-11-16T01:35:01.045Z,63.49
2022-11-16T01:36:01.041Z,65.58
2022-11-16T01:37:01.019Z,69.45
2022-11-16T01:38:01.013Z,67.35
2022-11-16T01:39:01.004Z,63.81
2022-11-16T01:40:01.002Z,70.25
2022-11-16T01:41:00.995Z,60.26
2022-11-16T01:42:00.981Z,63.00
2022-11-16T01:43:01.016Z,62.20
2022-11-16T01:44:00.967Z,59.62
2022-11-16T01:45:00.959Z,51.88
2022-11-16T01:46:00.954Z,50.76
2022-11-16T01:47:00.941Z,50.43
2022-11-16T01:48:01.940Z,59.14
2022-11-16T01:49:00.924Z,62.04
2022-11-16T01:50:00.924Z,63.81
2022-11-16T01:51:00.917Z,58.65
2022-11-16T01:52:00.899Z,69.29
2022-11-16T01:53:00.904Z,66.71
2022-11-16T01:54:00.886Z,52.21
2022-11-16T01:55:00.879Z,68.48
2022-11-16T01:56:00.870Z,64.29
2022-11-16T01:57:00.870Z,61.23
2022-11-16T01:58:00.849Z,62.68
2022-11-16T01:59:00.851Z,62.04
2022-11-16T02:00:00.843Z,66.23
2022-11-16T02:01:00.874Z,63.65
2022-11-16T02:02:00.816Z,74.93
2022-11-16T02:03:00.814Z,56.24
2022-11-16T02:04:00.802Z,67.51
2022-11-16T02:05:00.818Z,62.04
2022-11-16T02:06:00.786Z,60.91
2022-11-16T02:07:00.815Z,53.50
2022-11-16T02:08:00.771Z,60.75
2022-11-16T02:09:00.797Z,66.23
2022-11-16T02:10:00.783Z,63.81
2022-11-16T02:11:00.758Z,55.11
2022-11-16T02:12:00.743Z,63.16
2022-11-16T02:13:00.739Z,60.42
2022-11-16T02:14:00.738Z,64.94
2022-11-16T02:15:00.718Z,53.17
2022-11-16T02:16:00.713Z,53.33
2022-11-16T02:17:01.350Z,73.15
2022-11-16T02:18:00.694Z,62.68
2022-11-16T02:19:00.678Z,62.04
2022-11-16T02:20:00.676Z,60.91
2022-11-16T02:21:00.709Z,51.56
2022-11-16T02:22:00.659Z,65.42
2022-11-16T02:23:00.657Z,63.97
2022-11-16T02:24:00.646Z,58.81
2022-11-16T02:25:00.639Z,65.90
2022-11-16T02:26:00.640Z,68.16
2022-11-16T02:27:00.620Z,67.19
2022-11-16T02:28:00.631Z,70.90
2022-11-16T02:29:00.608Z,64.13
2022-11-16T02:30:00.600Z,65.10
2022-11-16T02:31:00.611Z,60.59
2022-11-16T02:32:00.610Z,62.20
2022-11-16T02:33:00.590Z,53.82
2022-11-16T02:34:00.574Z,68.96
2022-11-16T02:35:00.568Z,64.29
2022-11-16T02:36:00.572Z,70.25
2022-11-16T02:37:01.428Z,70.74
2022-11-16T02:38:00.548Z,63.97
2022-11-16T02:39:00.534Z,64.78
2022-11-16T02:40:00.524Z,55.43
2022-11-16T02:41:00.524Z,60.75
2022-11-16T02:42:00.534Z,67.35
2022-11-16T02:43:00.498Z,67.51
2022-11-16T02:44:00.495Z,51.40
2022-11-16T02:45:00.482Z,61.87
2022-11-16T02:46:00.472Z,67.19
2022-11-16T02:47:00.476Z,67.35
2022-11-16T02:48:00.462Z,59.14
2022-11-16T02:49:00.451Z,72.19
2022-11-16T02:50:00.442Z,69.29
2022-11-16T02:51:00.438Z,61.55
2022-11-16T02:52:00.431Z,59.30
2022-11-16T02:53:00.423Z,68.80
2022-11-16T02:54:00.410Z,62.68
2022-11-16T02:55:00.404Z,61.87
2022-11-16T02:56:00.404Z,54.79
2022-11-16T02:57:00.391Z,53.01
2022-11-16T02:58:00.386Z,58.33
2022-11-16T02:59:00.382Z,63.33
2022-11-16T03:00:00.365Z,66.39
2022-11-16T03:01:00.411Z,62.20
2022-11-16T03:02:00.943Z,68.80
2022-11-16T03:03:00.347Z,57.04
2022-11-16T03:04:00.329Z,60.26
2022-11-16T03:05:00.334Z,62.68
2022-11-16T03:06:00.315Z,62.04
2022-11-16T03:07:00.384Z,61.39
2022-11-16T03:08:00.295Z,61.55
2022-11-16T03:09:00.482Z,61.71
2022-11-16T03:10:00.281Z,73.15
2022-11-16T03:11:00.272Z,68.80
2022-11-16T03:12:00.314Z,63.81
2022-11-16T03:13:00.272Z,61.23
2022-11-16T03:14:01.259Z,61.23
2022-11-16T03:15:00.253Z,71.38
2022-11-16T03:16:00.233Z,62.04
2022-11-16T03:17:00.231Z,65.74
2022-11-16T03:18:00.217Z,67.68
2022-11-16T03:19:00.224Z,61.23
2022-11-16T03:20:00.203Z,67.84
2022-11-16T03:21:00.210Z,69.61
2022-11-16T03:22:00.194Z,62.68
2022-11-16T03:23:00.178Z,62.04
2022-11-16T03:24:01.882Z,63.81
2022-11-16T03:25:00.167Z,69.61
2022-11-16T03:26:00.163Z,65.90
2022-11-16T03:27:00.142Z,67.84
2022-11-16T03:28:00.140Z,63.33
2022-11-16T03:29:00.936Z,61.23
2022-11-16T03:30:00.175Z,62.68
2022-11-16T03:31:00.118Z,62.04
2022-11-16T03:32:00.114Z,65.90
2022-11-16T03:33:00.104Z,63.00
2022-11-16T03:34:00.101Z,63.00
2022-11-16T03:35:00.085Z,63.65
2022-11-16T03:36:00.080Z,62.68
2022-11-16T03:37:00.066Z,60.42
2022-11-16T03:38:00.079Z,62.84
2022-11-16T03:39:00.055Z,64.45
2022-11-16T03:40:00.040Z,73.32
2022-11-16T03:41:00.039Z,74.60
2022-11-16T03:42:00.033Z,62.04
2022-11-16T03:43:00.039Z,66.71
2022-11-16T03:44:00.016Z,72.83
2022-11-16T03:45:00.008Z,67.51
2022-11-16T03:46:00.003Z,62.68
2022-11-16T03:46:59.985Z,61.39
2022-11-16T03:47:59.983Z,68.64
2022-11-16T03:48:59.967Z,67.03
2022-11-16T03:49:59.967Z,73.96
2022-11-16T03:50:59.949Z,69.45
2022-11-16T03:51:59.980Z,63.97
2022-11-16T03:52:59.933Z,67.35
2022-11-16T03:53:59.926Z,67.03
2022-11-16T03:54:59.919Z,67.35
2022-11-16T03:55:59.906Z,72.03
2022-11-16T03:56:59.917Z,67.51
2022-11-16T03:57:59.897Z,69.93
2022-11-16T03:58:59.897Z,66.06
2022-11-16T03:59:59.895Z,64.78
2022-11-16T04:00:59.967Z,70.42
2022-11-16T04:01:59.894Z,71.70
2022-11-16T04:02:59.863Z,69.45
2022-11-16T04:03:59.858Z,67.68
2022-11-16T04:04:59.839Z,68.16
2022-11-16T04:05:59.870Z,67.68
2022-11-16T04:06:59.877Z,64.78
2022-11-16T04:07:59.832Z,68.00
2022-11-16T04:08:59.821Z,74.77
2022-11-16T04:09:59.824Z,68.48
2022-11-16T04:10:59.792Z,70.25
2022-11-16T04:11:59.795Z,76.38
2022-11-16T04:12:59.796Z,72.51
2022-11-16T04:13:59.780Z,69.93
2022-11-16T04:14:59.763Z,67.35
2022-11-16T04:15:59.756Z,69.13
2022-11-16T04:16:59.753Z,70.90
2022-11-16T04:17:59.766Z,70.58
2022-11-16T04:18:59.730Z,71.06
2022-11-16T04:19:59.722Z,68.96
2022-11-16T04:20:59.722Z,76.86
2022-11-16T04:21:59.720Z,76.70
2022-11-16T04:23:00.708Z,69.45
2022-11-16T04:23:59.703Z,69.29
2022-11-16T04:24:59.695Z,70.90
2022-11-16T04:26:00.450Z,77.02
2022-11-16T04:26:59.671Z,69.45
2022-11-16T04:28:00.372Z,72.19
2022-11-16T04:28:59.651Z,77.02
2022-11-16T04:29:59.651Z,75.73
2022-11-16T04:30:59.673Z,68.96
2022-11-16T04:31:59.645Z,68.64
2022-11-16T04:32:59.620Z,72.03
2022-11-16T04:33:59.672Z,70.74
2022-11-16T04:34:59.610Z,69.77
2022-11-16T04:36:00.380Z,71.06
2022-11-16T04:36:59.587Z,72.35
2022-11-16T04:37:59.617Z,71.87
2022-11-16T04:38:59.572Z,73.80
2022-11-16T04:39:59.566Z,70.90
2022-11-16T04:40:59.585Z,72.67
2022-11-16T04:41:59.558Z,69.13
2022-11-16T04:42:59.545Z,74.60
2022-11-16T04:43:59.535Z,69.29
2022-11-16T04:44:59.521Z,68.32
2022-11-16T04:45:59.540Z,79.60
2022-11-16T04:46:59.520Z,75.73
2022-11-16T04:47:59.508Z,72.35
2022-11-16T04:48:59.500Z,71.87
2022-11-16T04:49:59.488Z,68.48
2022-11-16T04:50:59.486Z,76.05
2022-11-16T04:51:59.481Z,74.60
2022-11-16T04:52:59.464Z,74.93
2022-11-16T04:53:59.455Z,76.86
2022-11-16T04:54:59.450Z,73.48
2022-11-16T04:56:00.986Z,72.03
2022-11-16T04:57:00.432Z,70.58
2022-11-16T04:57:59.438Z,69.29
2022-11-16T04:59:00.379Z,69.77
2022-11-16T05:00:00.410Z,70.42
2022-11-16T05:00:59.430Z,71.22
2022-11-16T05:01:59.396Z,69.45
2022-11-16T05:03:01.509Z,70.09
2022-11-16T05:04:00.377Z,72.67
2022-11-16T05:04:59.964Z,71.70
2022-11-16T05:05:59.366Z,71.06
2022-11-16T05:06:59.395Z,71.54
2022-11-16T05:07:59.362Z,70.58
2022-11-16T05:08:59.340Z,71.06
2022-11-16T05:09:59.353Z,76.86
2022-11-16T05:10:59.335Z,75.89
2022-11-16T05:11:59.319Z,72.03
2022-11-16T05:12:59.314Z,70.42
2022-11-16T05:13:59.318Z,71.54
2022-11-16T05:14:59.971Z,73.32
2022-11-16T05:15:59.295Z,70.42
2022-11-16T05:16:59.887Z,71.54
2022-11-16T05:17:59.275Z,71.54
2022-11-16T05:18:59.268Z,72.67
2022-11-16T05:19:59.256Z,73.64
2022-11-16T05:20:59.997Z,75.25
2022-11-16T05:21:59.235Z,75.41
2022-11-16T05:22:59.236Z,77.50
2022-11-16T05:23:59.227Z,76.70
2022-11-16T05:24:59.220Z,68.80
2022-11-16T05:25:59.226Z,73.48
2022-11-16T05:26:59.210Z,75.57
2022-11-16T05:27:59.893Z,76.70
2022-11-16T05:28:59.187Z,73.80
2022-11-16T05:29:59.189Z,70.58
2022-11-16T05:30:59.178Z,74.77
2022-11-16T05:31:59.174Z,74.77
2022-11-16T05:32:59.155Z,75.57
2022-11-16T05:33:59.152Z,74.93
2022-11-16T05:34:59.152Z,72.35
2022-11-16T05:35:59.180Z,73.80
2022-11-16T05:36:59.147Z,71.54
2022-11-16T05:37:59.122Z,76.22
2022-11-16T05:38:59.116Z,75.57
2022-11-16T05:40:00.109Z,74.93
2022-11-16T05:40:59.121Z,71.06
2022-11-16T05:41:59.108Z,76.38
2022-11-16T05:42:59.091Z,70.74
2022-11-16T05:43:59.072Z,76.38
2022-11-16T05:44:59.073Z,69.61
2022-11-16T05:45:59.107Z,70.42
2022-11-16T05:46:59.047Z,71.54
2022-11-16T05:47:59.052Z,71.22
2022-11-16T05:48:59.020Z,76.70
2022-11-16T05:50:00.026Z,72.83
2022-11-16T05:50:59.035Z,76.86
2022-11-16T05:51:59.044Z,75.57
2022-11-16T05:52:59.012Z,73.15
2022-11-16T05:53:58.994Z,75.73
2022-11-16T05:54:58.987Z,71.38
2022-11-16T05:55:59.123Z,76.05
2022-11-16T05:56:58.994Z,72.99
2022-11-16T05:57:58.972Z,74.28
2022-11-16T05:58:58.959Z,74.44
2022-11-16T05:59:58.967Z,71.06
2022-11-16T06:00:58.939Z,72.51
2022-11-16T06:01:59.000Z,78.15
2022-11-16T06:02:59.001Z,75.41
2022-11-16T06:03:58.945Z,76.70
2022-11-16T06:04:58.968Z,75.41
2022-11-16T06:06:00.482Z,72.35
2022-11-16T06:06:58.919Z,73.80
2022-11-16T06:07:58.887Z,71.87
2022-11-16T06:08:58.889Z,72.35
2022-11-16T06:09:58.934Z,72.51
2022-11-16T06:10:58.868Z,75.57
2022-11-16T06:11:58.857Z,74.60
2022-11-16T06:12:58.851Z,74.93
2022-11-16T06:13:58.837Z,73.64
2022-11-16T06:15:00.482Z,77.99
2022-11-16T06:15:59.142Z,74.93
2022-11-16T06:17:00.536Z,75.09
2022-11-16T06:17:58.808Z,73.48
2022-11-16T06:18:58.812Z,77.67
2022-11-16T06:19:58.809Z,74.28
2022-11-16T06:20:58.816Z,78.47
2022-11-16T06:21:58.779Z,76.05
2022-11-16T06:22:58.775Z,72.35
2022-11-16T06:23:58.773Z,75.89
2022-11-16T06:24:58.760Z,75.73
2022-11-16T06:25:58.777Z,76.54
2022-11-16T06:26:58.745Z,77.83
2022-11-16T06:27:58.739Z,77.18
2022-11-16T06:28:58.736Z,77.02
2022-11-16T06:29:58.731Z,74.12
2022-11-16T06:30:59.483Z,73.32
2022-11-16T06:31:58.717Z,73.64
2022-11-16T06:32:58.696Z,76.38
2022-11-16T06:33:58.703Z,77.83
2022-11-16T06:34:59.487Z,78.79
2022-11-16T06:35:58.682Z,77.02
2022-11-16T06:36:59.495Z,74.12
2022-11-16T06:37:58.655Z,78.63
2022-11-16T06:38:58.665Z,74.60
2022-11-16T06:39:58.654Z,75.89
2022-11-16T06:40:59.433Z,74.44
2022-11-16T06:41:59.637Z,76.54
2022-11-16T06:42:58.624Z,76.05
2022-11-16T06:43:58.623Z,74.77
2022-11-16T06:44:58.611Z,73.48
2022-11-16T06:45:58.591Z,76.70
2022-11-16T06:46:59.492Z,74.93
2022-11-16T06:47:58.890Z,77.34
2022-11-16T06:48:58.564Z,74.44
2022-11-16T06:49:58.570Z,72.99
2022-11-16T06:50:58.551Z,72.83
2022-11-16T06:51:58.556Z,73.96
2022-11-16T06:52:58.546Z,73.80
2022-11-16T06:53:58.536Z,79.44
2022-11-16T06:54:58.518Z,76.05
2022-11-16T06:56:01.424Z,75.89
2022-11-16T06:56:58.511Z,75.57
2022-11-16T06:57:58.516Z,75.89
2022-11-16T06:58:58.500Z,73.80
2022-11-16T06:59:59.421Z,75.25
2022-11-16T07:00:58.488Z,73.15
2022-11-16T07:01:58.506Z,73.80
2022-11-16T07:02:58.463Z,74.28
2022-11-16T07:03:58.557Z,78.47
2022-11-16T07:05:03.506Z,75.09
2022-11-16T07:05:59.435Z,75.25
2022-11-16T07:06:58.479Z,74.93
2022-11-16T07:07:58.427Z,71.70
2022-11-16T07:08:58.410Z,74.28
2022-11-16T07:09:58.428Z,72.51
2022-11-16T07:11:03.906Z,74.12
2022-11-16T07:12:00.382Z,75.57
2022-11-16T07:12:58.993Z,75.41
2022-11-16T07:13:58.401Z,74.12
2022-11-16T07:14:58.434Z,74.93
2022-11-16T07:15:58.467Z,75.41
2022-11-16T07:17:01.106Z,74.28
2022-11-16T07:17:59.411Z,72.19
2022-11-16T07:18:58.397Z,78.31
2022-11-16T07:19:58.620Z,74.77
2022-11-16T07:20:58.310Z,77.02
2022-11-16T07:21:58.327Z,74.28
2022-11-16T07:22:58.316Z,75.09
2022-11-16T07:23:58.289Z,76.38
2022-11-16T07:24:58.309Z,73.80
2022-11-16T07:25:58.276Z,73.64
2022-11-16T07:26:58.293Z,74.28
2022-11-16T07:27:58.269Z,73.15
2022-11-16T07:28:58.272Z,73.80
2022-11-16T07:29:58.267Z,75.89
2022-11-16T07:30:58.234Z,72.03
2022-11-16T07:31:58.230Z,75.89
2022-11-16T07:32:58.223Z,73.15
2022-11-16T07:33:58.213Z,73.15
2022-11-16T07:34:59.609Z,70.74
2022-11-16T07:35:59.211Z,74.77
2022-11-16T07:36:58.190Z,72.83
2022-11-16T07:37:58.194Z,73.48
2022-11-16T07:38:58.202Z,74.12
2022-11-16T07:39:58.173Z,75.25
2022-11-16T07:40:58.163Z,72.99
2022-11-16T07:41:58.159Z,72.83
2022-11-16T07:42:58.143Z,71.54
2022-11-16T07:43:58.134Z,72.67
2022-11-16T07:44:58.145Z,71.38
2022-11-16T07:46:14.055Z,72.03
2022-11-16T07:47:00.000Z,71.70
2022-11-16T07:47:58.136Z,70.09
2022-11-16T07:48:58.104Z,73.80
2022-11-16T07:49:58.092Z,74.93
2022-11-16T07:50:58.075Z,71.38
2022-11-16T07:51:58.342Z,71.70
2022-11-16T07:52:58.084Z,72.51
2022-11-16T07:53:58.049Z,74.77
2022-11-16T07:54:59.046Z,87.82
2022-11-16T07:55:58.922Z,84.27
2022-11-16T07:56:58.031Z,74.12
2022-11-16T07:57:59.009Z,74.12
2022-11-16T07:58:58.033Z,75.41
2022-11-16T07:59:58.024Z,75.89
2022-11-16T08:00:58.004Z,72.83
2022-11-16T08:01:59.158Z,74.93
2022-11-16T08:02:57.993Z,73.15
2022-11-16T08:03:57.990Z,73.80
2022-11-16T08:04:59.921Z,76.70
2022-11-16T08:05:57.967Z,72.83
2022-11-16T08:06:58.025Z,70.90
2022-11-16T08:07:58.073Z,70.42
2022-11-16T08:08:58.985Z,70.74
2022-11-16T08:09:58.974Z,74.60
2022-11-16T08:10:57.933Z,75.89
2022-11-16T08:11:57.928Z,71.22
2022-11-16T08:12:57.974Z,77.18
2022-11-16T08:13:57.901Z,71.87
2022-11-16T08:14:57.890Z,72.03
2022-11-16T08:15:58.434Z,73.64
2022-11-16T08:16:57.882Z,73.96
2022-11-16T08:17:58.432Z,77.50
2022-11-16T08:18:57.857Z,73.32
2022-11-16T08:19:57.854Z,73.96
2022-11-16T08:20:57.847Z,77.50
2022-11-16T08:21:57.846Z,73.32
2022-11-16T08:22:57.832Z,74.44
2022-11-16T08:23:58.899Z,73.64
2022-11-16T08:24:58.806Z,76.05
2022-11-16T08:25:57.806Z,71.70
2022-11-16T08:26:57.797Z,91.04
2022-11-16T08:27:58.522Z,71.70
2022-11-16T08:28:57.776Z,71.38
2022-11-16T08:29:57.769Z,71.87
2022-11-16T08:30:57.774Z,73.80
2022-11-16T08:31:57.763Z,72.83
2022-11-16T08:32:57.755Z,72.99
2022-11-16T08:33:57.743Z,74.28
2022-11-16T08:34:59.543Z,72.99
2022-11-16T08:36:01.439Z,76.38
2022-11-16T08:36:57.733Z,74.28
2022-11-16T08:37:57.706Z,73.32
2022-11-16T08:38:57.698Z,74.44
2022-11-16T08:39:57.690Z,72.19
2022-11-16T08:40:57.681Z,74.60
2022-11-16T08:41:57.674Z,74.60
2022-11-16T08:42:57.663Z,72.19
2022-11-16T08:43:57.658Z,72.19
2022-11-16T08:44:57.645Z,71.22
2022-11-16T08:45:57.661Z,73.96
2022-11-16T08:46:57.662Z,72.35
2022-11-16T08:48:03.377Z,72.19
2022-11-16T08:48:59.612Z,75.57
2022-11-16T08:49:57.611Z,75.89
2022-11-16T08:51:17.384Z,73.64
2022-11-16T08:51:59.598Z,74.60
2022-11-16T08:52:57.589Z,76.38
2022-11-16T08:53:57.580Z,74.44
2022-11-16T08:54:57.558Z,76.38
2022-11-16T08:55:59.518Z,73.48
2022-11-16T08:56:57.550Z,73.96
2022-11-16T08:57:59.511Z,75.73
2022-11-16T08:58:59.212Z,72.67
2022-11-16T09:00:00.526Z,70.74
2022-11-16T09:00:57.530Z,72.03
2022-11-16T09:01:57.597Z,74.28
2022-11-16T09:02:57.512Z,83.79
2022-11-16T09:03:57.581Z,75.25
2022-11-16T09:04:57.516Z,74.44
2022-11-16T09:05:57.488Z,74.60
2022-11-16T09:06:58.096Z,78.31
2022-11-16T09:07:57.505Z,72.51
2022-11-16T09:08:57.476Z,71.22
2022-11-16T09:09:57.463Z,74.28
2022-11-16T09:10:57.455Z,72.35
2022-11-16T09:11:57.566Z,74.12
2022-11-16T09:12:57.449Z,72.67
2022-11-16T09:13:57.421Z,74.93
2022-11-16T09:14:57.430Z,72.19
2022-11-16T09:15:57.422Z,75.89
2022-11-16T09:16:57.396Z,70.74
2022-11-16T09:17:58.943Z,72.83
2022-11-16T09:18:57.438Z,74.60
2022-11-16T09:19:59.040Z,74.28
2022-11-16T09:20:58.368Z,75.25
2022-11-16T09:21:57.367Z,72.35
2022-11-16T09:22:57.369Z,76.22
2022-11-16T09:23:59.028Z,73.15
2022-11-16T09:24:58.948Z,73.64
2022-11-16T09:25:57.334Z,69.77
2022-11-16T09:26:57.320Z,74.60
2022-11-16T09:27:57.417Z,73.96
2022-11-16T09:28:57.358Z,72.03
2022-11-16T09:29:57.302Z,71.22
2022-11-16T09:30:58.944Z,71.22
2022-11-16T09:31:57.298Z,73.80
2022-11-16T09:32:57.289Z,71.54
2022-11-16T09:33:57.391Z,73.32
2022-11-16T09:34:57.268Z,74.93
2022-11-16T09:35:57.257Z,76.86
2022-11-16T09:36:57.253Z,76.86
2022-11-16T09:37:57.239Z,71.06
2022-11-16T09:39:59.222Z,74.93
2022-11-16T09:40:57.220Z,71.54
2022-11-16T09:41:57.214Z,71.38
2022-11-16T09:42:59.129Z,70.25
2022-11-16T09:43:57.196Z,71.70
2022-11-16T09:44:57.196Z,71.54
2022-11-16T09:45:57.209Z,71.06
2022-11-16T09:46:57.164Z,73.15
2022-11-16T09:47:57.189Z,70.74
2022-11-16T09:48:57.148Z,70.09
2022-11-16T09:50:02.964Z,69.93
2022-11-16T09:50:59.132Z,73.48
2022-11-16T09:51:57.127Z,74.44
2022-11-16T09:52:57.112Z,74.28
2022-11-16T09:53:57.109Z,72.67
2022-11-16T09:54:57.121Z,69.93
2022-11-16T09:55:57.119Z,70.74
2022-11-16T09:56:57.121Z,72.03
2022-11-16T09:57:57.076Z,70.90
2022-11-16T09:58:57.108Z,72.03
2022-11-16T09:59:57.071Z,70.42
2022-11-16T10:00:57.097Z,70.90
2022-11-16T10:01:58.048Z,69.93
2022-11-16T10:02:57.038Z,71.38
2022-11-16T10:03:57.038Z,72.99
2022-11-16T10:04:58.643Z,77.02
2022-11-16T10:05:58.008Z,69.77
2022-11-16T10:06:57.064Z,72.35
2022-11-16T10:07:56.996Z,76.05
2022-11-16T10:08:57.004Z,74.28
2022-11-16T10:09:56.984Z,69.93
2022-11-16T10:10:56.969Z,69.93
2022-11-16T10:11:56.964Z,72.35
2022-11-16T10:12:56.968Z,71.87
2022-11-16T10:14:01.412Z,68.00
2022-11-16T10:14:59.032Z,73.32
2022-11-16T10:15:56.936Z,69.45
2022-11-16T10:16:56.938Z,71.70
2022-11-16T10:17:56.916Z,72.19
2022-11-16T10:18:56.900Z,75.09
2022-11-16T10:19:58.542Z,74.44
2022-11-16T10:20:56.892Z,73.96
2022-11-16T10:21:56.895Z,71.22
2022-11-16T10:22:56.878Z,71.06
2022-11-16T10:23:56.970Z,71.70
2022-11-16T10:24:56.860Z,71.70
2022-11-16T10:25:56.848Z,72.99
2022-11-16T10:26:56.849Z,70.90
2022-11-16T10:28:00.460Z,70.09
2022-11-16T10:28:56.943Z,70.58
2022-11-16T10:29:56.835Z,69.61
2022-11-16T10:30:56.969Z,74.28
2022-11-16T10:31:56.805Z,73.96
2022-11-16T10:32:56.828Z,70.58
2022-11-16T10:33:56.866Z,70.58
2022-11-16T10:34:56.778Z,69.77
2022-11-16T10:35:56.814Z,74.12
2022-11-16T10:36:56.795Z,71.22
2022-11-16T10:40:03.590Z,75.89
2022-11-16T10:41:04.689Z,73.15
2022-11-16T10:42:08.094Z,72.51
2022-11-16T10:43:07.457Z,74.28
2022-11-16T10:44:04.650Z,70.09
2022-11-16T10:45:04.646Z,69.77
2022-11-16T10:46:04.750Z,71.87
2022-11-16T10:47:04.641Z,70.90
2022-11-16T10:48:04.627Z,72.35
2022-11-16T10:49:04.612Z,70.09
2022-11-16T10:50:04.609Z,68.64
2022-11-16T10:51:04.595Z,69.29
2022-11-16T10:52:04.612Z,70.25
2022-11-16T10:53:05.455Z,71.70
2022-11-16T10:54:04.596Z,69.29
2022-11-16T10:55:04.568Z,72.51
2022-11-16T10:56:04.558Z,70.25
2022-11-16T10:57:04.547Z,75.09
2022-11-16T10:58:04.550Z,72.99
2022-11-16T10:59:06.031Z,70.74
2022-11-16T11:00:07.547Z,71.54
2022-11-16T11:01:05.571Z,70.90
2022-11-16T11:02:04.533Z,69.13
2022-11-16T11:03:04.543Z,70.74
2022-11-16T11:04:04.491Z,70.25
2022-11-16T11:05:04.504Z,75.09
2022-11-16T11:06:05.053Z,70.42
2022-11-16T11:07:05.095Z,70.74
2022-11-16T11:08:04.470Z,69.29
2022-11-16T11:09:04.461Z,69.13
2022-11-16T11:10:04.962Z,75.57
2022-11-16T11:11:04.440Z,66.55
2022-11-16T11:12:04.441Z,68.48
2022-11-16T11:13:04.971Z,71.54
2022-11-16T11:14:04.406Z,76.38
2022-11-16T11:15:04.975Z,70.58
2022-11-16T11:16:04.403Z,69.29
2022-11-16T11:17:04.397Z,67.84
2022-11-16T11:18:04.373Z,70.42
2022-11-16T11:19:04.367Z,76.86
2022-11-16T11:20:04.968Z,75.57
2022-11-16T11:21:04.970Z,85.88
2022-11-16T11:22:04.354Z,76.54
2022-11-16T11:23:04.337Z,69.13
2022-11-16T11:24:37.311Z,72.83
2022-11-16T11:25:06.320Z,69.77
2022-11-16T11:26:04.306Z,71.54
2022-11-16T11:27:04.299Z,75.09
2022-11-16T11:28:05.294Z,90.56
2022-11-16T11:29:04.292Z,70.09
2022-11-16T11:30:05.974Z,75.41
2022-11-16T11:31:04.284Z,70.09
2022-11-16T11:32:04.279Z,69.29
2022-11-16T11:33:04.250Z,70.58
2022-11-16T11:34:04.353Z,69.13
2022-11-16T11:35:04.279Z,72.35
2022-11-16T11:36:04.238Z,68.48
2022-11-16T11:37:04.220Z,71.38
2022-11-16T11:38:08.013Z,70.09
2022-11-16T11:39:05.246Z,72.51
2022-11-16T11:40:04.196Z,69.77
2022-11-16T11:41:04.188Z,72.19
2022-11-16T11:42:04.185Z,73.15
2022-11-16T11:43:04.190Z,68.16
2022-11-16T11:44:04.161Z,71.38
2022-11-16T11:45:04.166Z,69.61
2022-11-16T11:46:04.152Z,68.48
2022-11-16T11:48:06.134Z,69.61
2022-11-16T11:49:04.121Z,72.67
2022-11-16T11:50:04.215Z,68.64
2022-11-16T11:51:04.120Z,72.51
2022-11-16T11:52:04.104Z,70.09
2022-11-16T11:53:04.092Z,70.58
2022-11-16T11:54:05.058Z,68.32
2022-11-16T11:55:04.083Z,72.83
2022-11-16T11:56:04.068Z,72.19
2022-11-16T11:59:13.544Z,70.09
2022-11-16T12:00:13.637Z,68.32
2022-11-16T12:01:14.628Z,71.06
2022-11-16T12:02:14.658Z,70.09
2022-11-16T12:03:15.310Z,71.54
2022-11-16T12:04:15.592Z,73.96
2022-11-16T12:05:14.686Z,71.06
2022-11-16T12:06:14.605Z,71.06
2022-11-16T12:07:14.610Z,71.22
2022-11-16T12:08:14.584Z,70.09
2022-11-16T12:09:14.558Z,72.03
2022-11-16T12:10:14.546Z,75.73
2022-11-16T12:11:14.576Z,69.93
2022-11-16T12:12:15.062Z,70.09
2022-11-16T12:13:15.525Z,69.29
2022-11-16T12:14:14.522Z,70.74
2022-11-16T12:15:15.514Z,71.70
2022-11-16T12:16:14.507Z,70.90
2022-11-16T12:17:15.344Z,73.96
2022-11-16T12:18:14.491Z,70.09
2022-11-16T12:19:14.500Z,71.06
2022-11-16T12:20:14.496Z,72.03
2022-11-16T12:21:16.361Z,72.67
2022-11-16T12:22:14.455Z,72.99
2022-11-16T12:23:14.443Z,79.44
2022-11-16T12:24:14.443Z,68.64
2022-11-16T12:25:14.432Z,72.19
2022-11-16T12:26:15.271Z,67.19
2022-11-16T12:27:14.449Z,70.58
2022-11-16T12:28:14.414Z,70.74
2022-11-16T12:29:15.268Z,70.09
2022-11-16T12:30:14.397Z,72.03
2022-11-16T12:31:15.372Z,71.87
2022-11-16T12:32:14.367Z,74.44
2022-11-16T12:33:14.364Z,67.51
2022-11-16T12:34:14.352Z,68.80
2022-11-16T12:35:14.363Z,68.32
2022-11-16T12:36:14.339Z,68.48
2022-11-16T12:37:14.432Z,65.10
2022-11-16T12:38:14.341Z,72.03
2022-11-16T12:39:14.313Z,68.80
2022-11-16T12:40:14.305Z,71.38
2022-11-16T12:41:14.293Z,73.15
2022-11-16T12:42:14.289Z,69.77
2022-11-16T12:43:15.287Z,72.51
2022-11-16T12:44:14.272Z,66.71
2022-11-16T12:45:14.265Z,72.67
2022-11-16T12:46:14.258Z,67.51
2022-11-16T12:47:14.245Z,68.48
2022-11-16T12:48:14.252Z,67.84
2022-11-16T12:49:14.224Z,70.42
2022-11-16T12:50:14.236Z,67.68
2022-11-16T12:51:14.257Z,72.03
2022-11-16T12:52:14.209Z,70.42
2022-11-16T12:53:14.214Z,68.48
2022-11-16T12:54:14.203Z,72.35
2022-11-16T12:55:29.554Z,72.67
2022-11-16T12:56:16.178Z,71.54
2022-11-16T12:57:14.847Z,69.13
2022-11-16T12:58:14.161Z,65.90
2022-11-16T12:59:14.156Z,68.00
2022-11-16T13:00:14.148Z,69.93